createdAt,value
2017-09-04T03:01:16.035Z,4.50
2017-09-04T03:03:44.498Z,4.10
2017-09-04T03:06:12.485Z,3.90
2017-09-04T03:08:40.849Z,4.37
2017-09-04T03:11:09.191Z,4.87
2017-09-04T03:13:37.542Z,4.53
2017-09-04T03:16:05.902Z,4.40
2017-09-04T03:18:34.254Z,4.20
2017-09-04T03:21:02.596Z,4.07
2017-09-04T03:23:30.953Z,4.20
2017-09-04T03:25:58.618Z,4.20
2017-09-04T03:28:26.267Z,3.90
2017-09-04T03:30:54.450Z,4.20
2017-09-04T03:33:22.433Z,3.80
2017-09-04T03:35:50.429Z,4.30
2017-09-04T03:38:18.106Z,4.33
2017-09-04T03:40:45.585Z,4.70
2017-09-04T03:43:13.054Z,4.47
2017-09-04T03:45:40.879Z,4.73
2017-09-04T03:48:08.694Z,4.53
2017-09-04T03:50:36.857Z,4.70
2017-09-04T03:53:04.337Z,4.80
2017-09-04T03:55:32.139Z,3.80
2017-09-04T03:58:00.377Z,3.90
2017-09-04T04:00:28.389Z,4.60
2017-09-04T04:02:56.629Z,4.23
2017-09-04T04:05:24.631Z,3.83
2017-09-04T04:07:52.296Z,4.93
2017-09-04T04:10:20.990Z,4.63
2017-09-04T04:12:48.647Z,5.30
2017-09-04T04:15:16.828Z,4.10
2017-09-04T04:17:44.292Z,3.60
2017-09-04T04:20:12.631Z,4.67
2017-09-04T04:22:40.998Z,4.67
2017-09-04T04:25:09.002Z,3.83
2017-09-04T04:27:37.341Z,4.17
2017-09-04T04:30:05.007Z,4.67
2017-09-04T04:32:34.344Z,4.30
2017-09-04T04:35:03.534Z,5.57
2017-09-04T04:37:31.875Z,5.30
2017-09-04T04:40:00.225Z,5.60
2017-09-04T04:42:29.343Z,4.83
2017-09-04T04:44:58.465Z,5.83
2017-09-04T04:47:26.808Z,5.10
2017-09-04T04:49:55.149Z,5.10
2017-09-04T04:52:23.525Z,4.50
2017-09-04T04:54:52.133Z,4.57
2017-09-04T04:57:20.473Z,4.57
2017-09-04T04:59:48.853Z,5.20
2017-09-04T05:02:17.207Z,4.77
2017-09-04T05:04:45.544Z,4.83
2017-09-04T05:07:13.910Z,4.63
2017-09-04T05:09:42.248Z,4.20
2017-09-04T05:12:10.594Z,5.47
2017-09-04T05:14:38.946Z,4.97
2017-09-04T05:17:07.290Z,4.43
2017-09-04T05:19:35.637Z,4.07
2017-09-04T05:22:04.002Z,4.90
2017-09-04T05:24:32.345Z,4.27
2017-09-04T05:27:00.698Z,4.40
2017-09-04T05:29:29.102Z,4.53
2017-09-04T05:31:57.256Z,4.80
2017-09-04T05:34:25.609Z,4.13
2017-09-04T05:36:53.973Z,4.20
2017-09-04T05:39:22.314Z,4.13
2017-09-04T05:41:50.653Z,4.77
2017-09-04T05:44:19.021Z,4.80
2017-09-04T05:46:47.361Z,5.13
2017-09-04T05:49:15.700Z,4.93
2017-09-04T05:51:44.057Z,4.30
2017-09-04T05:54:12.401Z,4.77
2017-09-04T05:56:40.768Z,4.80
2017-09-04T05:59:09.128Z,4.00
2017-09-04T06:01:37.291Z,5.10
2017-09-04T06:04:05.444Z,4.80
2017-09-04T06:06:34.577Z,4.23
2017-09-04T06:09:02.921Z,4.60
2017-09-04T06:11:31.266Z,4.47
2017-09-04T06:13:59.619Z,4.60
2017-09-04T06:16:27.776Z,4.17
2017-09-04T06:18:56.121Z,3.67
2017-09-04T06:21:24.475Z,3.67
2017-09-04T06:23:52.827Z,3.57
2017-09-04T06:26:21.167Z,3.73
2017-09-04T06:28:50.293Z,3.90
2017-09-04T06:31:18.637Z,3.43
2017-09-04T06:33:46.985Z,3.03
2017-09-04T06:36:15.349Z,3.53
2017-09-04T06:38:43.688Z,3.00
2017-09-04T06:41:12.032Z,2.60
2017-09-04T06:43:40.398Z,3.30
2017-09-04T06:46:08.736Z,2.60
2017-09-04T06:48:37.080Z,3.63
2017-09-04T06:51:06.219Z,4.30
2017-09-04T06:53:34.556Z,3.90
2017-09-04T06:56:03.664Z,2.70
2017-09-04T06:58:32.068Z,3.30
2017-09-04T07:01:00.416Z,2.93
2017-09-04T07:03:28.755Z,2.90
2017-09-04T07:05:57.117Z,3.27
2017-09-04T07:08:25.465Z,2.97
2017-09-04T07:10:53.809Z,2.93
2017-09-04T07:13:22.173Z,3.07
2017-09-04T07:15:50.527Z,2.60
2017-09-04T07:18:18.865Z,2.60
2017-09-04T07:20:47.240Z,3.10
2017-09-04T07:23:15.596Z,3.20
2017-09-04T07:25:43.945Z,3.10
2017-09-04T07:28:12.306Z,3.10
2017-09-04T07:30:40.644Z,3.00
2017-09-04T07:33:09.078Z,3.27
2017-09-04T07:35:37.424Z,3.20
2017-09-04T07:38:05.778Z,3.27
2017-09-04T07:40:34.121Z,3.13
2017-09-04T07:43:02.734Z,2.93
2017-09-04T07:45:31.079Z,2.90
2017-09-04T07:47:59.427Z,2.73
2017-09-04T07:50:27.784Z,2.63
2017-09-04T07:52:56.140Z,2.60
2017-09-04T07:55:24.485Z,2.40
2017-09-04T07:57:52.841Z,2.00
2017-09-04T08:00:21.193Z,2.10
2017-09-04T08:02:49.545Z,2.10
2017-09-04T08:05:17.912Z,2.30
2017-09-04T08:07:46.083Z,2.13
2017-09-04T08:10:14.432Z,2.13
2017-09-04T08:12:42.797Z,2.30
2017-09-04T08:15:11.140Z,2.00
2017-09-04T08:17:39.487Z,1.97
2017-09-04T08:20:07.850Z,2.10
2017-09-04T08:22:36.201Z,2.10
2017-09-04T08:25:04.811Z,2.03
2017-09-04T08:27:33.426Z,2.20
2017-09-04T08:30:01.772Z,1.63
2017-09-04T08:32:30.116Z,1.83
2017-09-04T08:34:58.489Z,2.00
2017-09-04T08:37:26.831Z,1.93
2017-09-04T08:39:55.177Z,1.80
2017-09-04T08:42:23.537Z,2.50
2017-09-04T08:44:51.889Z,2.20
2017-09-04T08:47:20.233Z,2.60
2017-09-04T08:49:49.363Z,1.80
2017-09-04T08:52:17.709Z,2.67
2017-09-04T08:54:46.053Z,1.77
2017-09-04T08:57:14.413Z,1.73
2017-09-04T08:59:42.759Z,2.07
2017-09-04T09:02:10.769Z,1.70
2017-09-04T09:04:38.941Z,1.87
2017-09-04T09:07:07.288Z,2.03
2017-09-04T09:09:35.644Z,1.93
2017-09-04T09:12:04.028Z,1.87
2017-09-04T09:14:32.376Z,1.40
2017-09-04T09:17:00.727Z,1.70
2017-09-04T09:19:29.098Z,1.50
2017-09-04T09:21:57.250Z,1.57
2017-09-04T09:24:25.446Z,2.03
2017-09-04T09:26:53.642Z,1.70
2017-09-04T09:29:21.814Z,1.20
2017-09-04T09:31:49.965Z,1.77
2017-09-04T09:34:18.332Z,1.87
2017-09-04T09:36:46.681Z,1.57
2017-09-04T09:39:15.025Z,1.70
2017-09-04T09:41:43.393Z,1.80
2017-09-04T09:44:11.733Z,2.07
2017-09-04T09:46:40.079Z,1.90
2017-09-04T09:49:08.447Z,2.00
2017-09-04T09:51:36.606Z,1.43
2017-09-04T09:54:04.757Z,1.60
2017-09-04T09:56:32.936Z,1.43
2017-09-04T09:59:01.094Z,1.43
2017-09-04T10:01:29.252Z,1.37
2017-09-04T10:03:58.462Z,1.27
2017-09-04T10:06:26.630Z,1.30
2017-09-04T10:08:54.806Z,1.40
2017-09-04T10:11:22.976Z,1.73
2017-09-04T10:13:51.155Z,2.70
2017-09-04T10:16:19.325Z,2.00
2017-09-04T10:18:48.280Z,1.43
2017-09-04T10:21:16.443Z,1.67
2017-09-04T10:23:44.602Z,1.23
2017-09-04T10:26:12.775Z,1.73
2017-09-04T10:28:40.945Z,1.60
2017-09-04T10:31:09.361Z,1.67
2017-09-04T10:33:37.529Z,1.40
2017-09-04T10:36:05.697Z,1.50
2017-09-04T10:38:33.856Z,1.60
2017-09-04T10:41:02.039Z,1.67
2017-09-04T10:43:30.192Z,1.60
2017-09-04T10:45:58.348Z,1.53
2017-09-04T10:48:26.532Z,1.50
2017-09-04T10:50:54.684Z,1.50
2017-09-04T10:53:22.844Z,1.63
2017-09-04T10:55:51.232Z,1.40
2017-09-04T10:58:19.438Z,1.50
2017-09-04T11:00:48.570Z,1.50
2017-09-04T11:03:16.936Z,2.00
2017-09-04T11:05:45.294Z,1.63
2017-09-04T11:08:13.642Z,1.73
2017-09-04T11:10:41.823Z,2.50
2017-09-04T11:13:09.985Z,1.67
2017-09-04T11:15:38.139Z,1.67
2017-09-04T11:18:06.321Z,1.70
2017-09-04T11:20:34.507Z,2.20
2017-09-04T11:23:02.661Z,1.90
2017-09-04T11:25:30.840Z,1.53
2017-09-04T11:27:59.002Z,1.90
2017-09-04T11:30:27.162Z,1.83
2017-09-04T11:32:55.342Z,1.43
2017-09-04T11:35:23.505Z,1.60
2017-09-04T11:37:51.666Z,1.60
2017-09-04T11:40:20.020Z,1.87
2017-09-04T11:42:48.186Z,1.70
2017-09-04T11:45:16.546Z,2.10
2017-09-04T11:47:44.901Z,1.90
2017-09-04T11:50:13.249Z,1.80
2017-09-04T11:52:41.402Z,2.10
2017-09-04T11:55:09.764Z,1.40
2017-09-04T11:57:38.105Z,1.80
2017-09-04T12:00:06.459Z,1.97
2017-09-04T12:02:35.579Z,2.03
2017-09-04T12:05:04.513Z,1.93
2017-09-04T12:07:32.685Z,2.03
2017-09-04T12:10:00.859Z,1.87
2017-09-04T12:12:29.465Z,1.80
2017-09-04T12:14:57.625Z,1.90
2017-09-04T12:17:26.005Z,1.90
2017-09-04T12:19:54.746Z,2.10
2017-09-04T12:22:23.154Z,1.40
2017-09-04T12:24:51.567Z,2.00
2017-09-04T12:27:19.916Z,2.27
2017-09-04T12:32:50.765Z,1.70
2017-09-04T12:35:19.120Z,1.83
2017-09-04T12:37:47.282Z,1.60
2017-09-04T12:40:15.476Z,1.37
2017-09-04T12:42:43.828Z,2.00
2017-09-04T12:45:12.180Z,1.93
2017-09-04T12:47:40.554Z,1.90
2017-09-04T12:50:08.890Z,1.30
2017-09-04T12:52:37.246Z,1.50
2017-09-04T12:55:05.609Z,1.53
2017-09-04T12:57:34.768Z,1.80
2017-09-04T13:03:06.386Z,1.93
2017-09-04T13:05:34.589Z,1.83
2017-09-04T13:08:02.756Z,1.40
2017-09-04T13:10:36.534Z,1.40
2017-09-04T13:16:15.061Z,1.70
2017-09-04T13:18:48.821Z,1.70
2017-09-04T13:24:28.516Z,1.67
2017-09-04T13:27:02.301Z,2.00
2017-09-04T13:32:42.013Z,1.90
2017-09-04T13:35:16.826Z,1.40
2017-09-04T13:37:50.740Z,1.50
2017-09-04T13:43:42.620Z,1.40
2017-09-04T13:49:23.328Z,1.73
2017-09-04T13:51:54.441Z,1.80
2017-09-04T13:54:28.442Z,1.83
2017-09-04T14:00:06.367Z,1.83
2017-09-04T14:02:40.200Z,1.40
2017-09-04T14:05:29.121Z,1.50
2017-09-04T14:08:03.736Z,1.87
2017-09-04T14:13:55.551Z,1.70
2017-09-04T14:16:29.445Z,1.40
2017-09-04T14:18:57.803Z,1.33
2017-09-04T14:21:25.972Z,1.17
2017-09-04T14:23:54.398Z,1.60
2017-09-04T14:26:22.586Z,1.60
2017-09-04T14:28:50.754Z,1.90
2017-09-04T14:31:18.928Z,1.70
2017-09-04T14:33:47.084Z,1.47
2017-09-04T14:36:15.255Z,1.57
2017-09-04T14:38:43.423Z,1.80
2017-09-04T14:41:26.470Z,1.77
2017-09-04T14:47:11.440Z,1.30
2017-09-04T14:49:39.614Z,1.53
2017-09-04T14:52:07.790Z,1.60
2017-09-04T14:54:35.952Z,1.50
2017-09-04T14:57:04.142Z,1.60
2017-09-04T14:59:32.305Z,1.90
2017-09-04T15:02:00.466Z,1.80
2017-09-04T15:04:28.829Z,1.60
2017-09-04T15:06:57.005Z,2.40
2017-09-04T15:09:25.421Z,1.83
2017-09-04T15:11:53.597Z,1.30
2017-09-04T15:14:21.838Z,1.60
2017-09-04T15:16:50.003Z,1.40
2017-09-04T15:19:18.173Z,1.60
2017-09-04T15:21:46.333Z,2.10
2017-09-04T15:24:15.265Z,1.60
2017-09-04T15:26:43.453Z,2.07
2017-09-04T15:29:11.612Z,1.30
2017-09-04T15:31:39.796Z,1.67
2017-09-04T15:34:07.998Z,1.90
2017-09-04T15:36:35.800Z,2.07
2017-09-04T15:39:03.270Z,1.60
2017-09-04T15:41:31.445Z,1.30
2017-09-04T15:43:59.602Z,1.53
2017-09-04T15:46:28.524Z,1.97
2017-09-04T15:48:56.705Z,2.10
2017-09-04T15:51:24.878Z,1.70
2017-09-04T15:53:53.045Z,1.67
2017-09-04T15:56:21.232Z,1.60
2017-09-04T15:58:49.398Z,1.70
2017-09-04T16:01:17.561Z,1.87
2017-09-04T16:03:45.751Z,1.97
2017-09-04T16:09:19.510Z,1.70
2017-09-04T16:11:50.138Z,1.67
2017-09-04T16:14:22.940Z,1.70
2017-09-04T16:20:17.253Z,1.53
2017-09-04T16:22:56.273Z,1.63
2017-09-04T16:25:26.268Z,1.40
2017-09-04T16:28:00.157Z,2.10
2017-09-04T16:30:32.790Z,1.00
2017-09-04T16:33:02.754Z,1.77
2017-09-04T16:35:36.385Z,1.77
2017-09-04T16:38:08.013Z,1.90
2017-09-04T16:40:36.443Z,1.67
2017-09-04T16:43:15.296Z,1.20
2017-09-04T16:45:48.038Z,1.47
2017-09-04T16:48:31.095Z,1.80
2017-09-04T16:51:10.057Z,1.20
2017-09-04T16:56:47.377Z,1.60
2017-09-04T16:59:15.554Z,1.37
2017-09-04T17:01:43.712Z,1.47
2017-09-04T17:04:11.880Z,1.27
2017-09-04T17:06:40.060Z,1.23
2017-09-04T17:09:08.797Z,1.20
2017-09-04T17:11:37.527Z,1.37
2017-09-04T17:14:05.698Z,1.30
2017-09-04T17:16:34.325Z,1.50
2017-09-04T17:19:16.398Z,1.50
2017-09-04T17:21:49.172Z,1.37
2017-09-04T17:24:18.272Z,1.67
2017-09-04T17:26:46.449Z,1.77
2017-09-04T17:29:14.598Z,1.80
2017-09-04T17:31:42.770Z,1.90
2017-09-04T17:34:10.925Z,2.40
2017-09-04T17:36:39.113Z,2.10
2017-09-04T17:39:08.057Z,1.20
2017-09-04T17:41:36.221Z,1.67
2017-09-04T17:44:05.971Z,1.33
2017-09-04T17:46:47.670Z,1.80
2017-09-04T17:49:15.835Z,1.77
2017-09-04T17:51:47.649Z,2.23
2017-09-04T17:54:15.830Z,1.83
2017-09-04T17:56:43.995Z,1.73
2017-09-04T18:02:29.424Z,1.37
2017-09-04T18:07:53.752Z,2.37
2017-09-04T18:10:22.117Z,2.13
2017-09-04T18:12:50.472Z,2.00
2017-09-04T18:15:18.829Z,2.23
2017-09-04T18:17:47.025Z,3.10
2017-09-04T18:20:15.185Z,2.30
2017-09-04T18:22:43.355Z,2.70
2017-09-04T18:31:29.353Z,2.20
2017-09-04T18:36:50.789Z,2.50
2017-09-04T18:39:18.954Z,2.10
2017-09-04T18:41:47.127Z,2.33
2017-09-04T18:44:15.748Z,1.97
2017-09-04T18:46:43.912Z,2.50
2017-09-04T18:49:12.068Z,2.47
2017-09-04T18:51:40.257Z,2.57
2017-09-04T18:54:08.425Z,2.57
2017-09-04T18:56:36.593Z,2.70
2017-09-04T18:59:04.783Z,2.43
2017-09-04T19:01:32.952Z,3.10
2017-09-04T19:04:02.065Z,2.80
2017-09-04T19:06:30.435Z,2.77
2017-09-04T19:08:58.597Z,2.70
2017-09-04T19:11:26.952Z,2.80
2017-09-04T19:13:55.142Z,2.57
2017-09-04T19:16:23.329Z,2.63
2017-09-04T19:18:51.926Z,2.93
2017-09-04T19:21:20.293Z,2.50
2017-09-04T19:23:49.216Z,2.70
2017-09-04T19:26:17.492Z,2.50
2017-09-04T19:28:45.660Z,2.83
2017-09-04T19:31:13.818Z,2.67
2017-09-04T19:33:41.984Z,2.20
2017-09-04T19:36:10.158Z,2.90
2017-09-04T19:38:39.093Z,2.80
2017-09-04T19:41:07.445Z,3.20
2017-09-04T19:43:35.641Z,2.63
2017-09-04T19:46:03.801Z,3.67
2017-09-04T19:48:32.160Z,2.60
2017-09-04T19:51:01.293Z,2.40
2017-09-04T19:53:29.467Z,3.27
2017-09-04T19:55:57.620Z,3.00
2017-09-04T19:58:25.806Z,3.20
2017-09-04T20:03:56.413Z,3.27
2017-09-04T20:06:24.577Z,2.80
2017-09-04T20:08:52.753Z,3.60
2017-09-04T20:11:20.929Z,3.10
2017-09-04T20:13:49.108Z,3.80
2017-09-04T20:16:17.273Z,3.27
2017-09-04T20:18:45.441Z,3.60
2017-09-04T20:21:13.602Z,3.40
2017-09-04T20:23:42.528Z,3.80
2017-09-04T20:26:10.711Z,3.33
2017-09-04T20:28:39.069Z,4.13
2017-09-04T20:31:07.418Z,3.93
2017-09-04T20:33:36.362Z,3.23
2017-09-04T20:36:04.713Z,3.70
2017-09-04T20:38:32.878Z,3.53
2017-09-04T20:41:01.058Z,3.37
2017-09-04T20:43:29.222Z,3.50
2017-09-04T20:45:57.579Z,3.50
2017-09-04T20:48:25.947Z,4.50
2017-09-04T20:50:54.114Z,3.93
2017-09-04T20:53:22.721Z,4.00
2017-09-04T20:55:51.085Z,4.10
2017-09-04T20:58:19.245Z,4.20
2017-09-04T21:00:47.602Z,3.60
2017-09-04T21:03:15.965Z,3.70
2017-09-04T21:05:44.116Z,4.40
2017-09-04T21:08:13.142Z,4.00
2017-09-04T21:10:41.319Z,4.30
2017-09-04T21:13:09.480Z,3.87
2017-09-04T21:15:37.640Z,3.70
2017-09-04T21:18:05.842Z,4.30
2017-09-04T21:20:33.994Z,4.33
2017-09-04T21:23:02.162Z,4.27
2017-09-04T21:25:30.333Z,3.87
2017-09-04T21:27:58.515Z,3.80
2017-09-04T21:30:26.921Z,4.80
2017-09-04T21:32:55.103Z,4.70
2017-09-04T21:35:23.523Z,4.90
2017-09-04T21:37:51.694Z,5.00
2017-09-04T21:40:19.865Z,4.70
2017-09-04T21:42:48.805Z,5.10
2017-09-04T21:45:16.961Z,4.60
2017-09-04T21:47:45.338Z,4.23
2017-09-04T21:50:13.685Z,4.37
2017-09-04T21:52:42.040Z,5.03
2017-09-04T21:55:10.416Z,5.43
2017-09-04T21:57:38.773Z,5.10
2017-09-04T22:00:06.940Z,5.53
2017-09-04T22:02:35.118Z,5.20
2017-09-04T22:05:03.286Z,4.97
2017-09-04T22:07:31.629Z,5.13
2017-09-04T22:09:59.999Z,5.30
2017-09-04T22:12:28.358Z,5.80
2017-09-04T22:14:56.691Z,4.27
2017-09-04T22:17:24.892Z,5.07
2017-09-04T22:19:53.249Z,5.20
2017-09-04T22:22:21.611Z,4.90
2017-09-04T22:24:49.786Z,4.43
2017-09-04T22:27:17.953Z,4.47
2017-09-04T22:29:46.116Z,4.10
2017-09-04T22:32:14.290Z,4.47
2017-09-04T22:34:42.448Z,4.53
2017-09-04T22:37:10.613Z,4.67
2017-09-04T22:39:38.792Z,5.07
2017-09-04T22:42:07.141Z,4.10
2017-09-04T22:44:36.068Z,5.07
2017-09-04T22:47:04.239Z,4.50
2017-09-04T22:49:32.401Z,4.67
2017-09-04T22:52:00.571Z,4.83
2017-09-04T22:54:28.743Z,4.67
2017-09-04T22:56:56.911Z,5.10
2017-09-04T22:59:25.062Z,4.47
2017-09-04T23:01:53.233Z,4.13
2017-09-04T23:04:21.404Z,3.70
2017-09-04T23:06:49.557Z,4.13
2017-09-04T23:09:17.736Z,4.33
2017-09-04T23:11:45.892Z,4.57
2017-09-04T23:14:14.244Z,4.37
2017-09-04T23:16:42.434Z,5.03
2017-09-04T23:19:10.784Z,3.83
2017-09-04T23:21:39.134Z,4.37
2017-09-04T23:24:07.506Z,4.67
2017-09-04T23:26:35.855Z,4.47
2017-09-04T23:29:04.025Z,4.60
2017-09-04T23:31:32.201Z,4.70
2017-09-04T23:34:00.581Z,4.60
2017-09-04T23:36:28.739Z,5.13
2017-09-04T23:38:57.034Z,4.80
2017-09-04T23:41:25.377Z,5.10
2017-09-04T23:43:53.721Z,4.07
2017-09-04T23:46:21.907Z,4.87
2017-09-04T23:48:50.064Z,5.37
2017-09-04T23:51:18.228Z,4.53
2017-09-04T23:53:46.408Z,4.30
2017-09-04T23:56:14.763Z,5.30
2017-09-04T23:58:42.924Z,4.50
